F/V Kan An Ael — FHIZ — position and weather

sailwx.info

Track history (hours):
 
Tides and Currents Weather Stations Pressure Air Temp Water Temp Dewpoint Dewpoint Depression Visibility Wind Speed Wind Dir Waves Ship Positions

F/V Kan An Ael

Last reported at 2018-Jun-18 07:50 UTC. Time now 2018-Jun-20 09:37 UTC.
Position N 47°49' W 004°23'.

Length 16 m.

Type: Fishing. MMSI: 228109000.

Date/timePositionNaut miles runAvg speedWind from/ knotsBaromVisibWave heightAir tempDewpointWater temp
2018-Jun-18 07:50N 47°49' W 004°23'0 0.0
2018-Jun-18 07:28N 47°49' W 004°23'2 4.2
2018-Jun-18 07:00N 47°50' W 004°26'4 8.9
2018-Jun-18 06:30N 47°52' W 004°30'7 8.5
2018-Jun-18 05:38N 47°57' W 004°39'1 8.2
2018-Jun-18 05:29N 47°58' W 004°40'4 7.6
2018-Jun-18 05:00N 48°01' W 004°44'3 6.1
2018-Jun-18 04:30N 48°03' W 004°47'4 8.3
2018-Jun-18 04:00N 48°05' W 004°52'4 8.2
2018-Jun-18 03:30N 48°08' W 004°57'3 7.1
2018-Jun-18 03:00N 48°11' W 004°59'1 2.0
2018-Jun-18 02:30N 48°12' W 004°57'1 2.6
2018-Jun-18 02:00N 48°12' W 004°56'1 2.7
2018-Jun-18 01:30N 48°13' W 004°54'1 2.7
2018-Jun-18 01:00N 48°14' W 004°53'1 2.2
2018-Jun-18 00:30N 48°15' W 004°53'1 2.8
2018-Jun-18 00:00N 48°15' W 004°55'1 2.6
2018-Jun-17 23:30N 48°14' W 004°57'1 2.4
2018-Jun-17 23:00N 48°13' W 004°58'1 2.6
2018-Jun-17 22:30N 48°13' W 005°00'1 2.4
2018-Jun-17 22:00N 48°12' W 005°02'2 4.2
2018-Jun-17 21:26N 48°13' W 005°05'1 2.5
2018-Jun-17 20:53N 48°15' W 005°05'1 3.2
2018-Jun-17 20:29N 48°16' W 005°05'1 2.6
2018-Jun-17 19:59N 48°17' W 005°05'1 2.3
2018-Jun-17 19:30N 48°16' W 005°03'1 2.9
2018-Jun-17 19:00N 48°15' W 005°03'2 1.7
2018-Jun-17 17:38N 48°15' W 005°07'1 1.3
2018-Jun-17 16:38N 48°17' W 005°08'1 1.2
2018-Jun-17 15:42N 48°17' W 005°07'1 2.3
2018-Jun-17 15:24N 48°17' W 005°06'1 2.7
2018-Jun-17 15:00N 48°16' W 005°05'1 2.9
2018-Jun-17 14:30N 48°15' W 005°04'1 2.5
2018-Jun-17 14:00N 48°15' W 005°05'1 2.3
2018-Jun-17 13:30N 48°13' W 005°05'1 2.7
2018-Jun-17 13:00N 48°13' W 005°03'1 2.5
2018-Jun-17 12:30N 48°12' W 005°02'1 2.5
2018-Jun-17 12:00N 48°11' W 005°01'1 2.1
2018-Jun-17 11:30N 48°10' W 005°02'1 2.1
2018-Jun-17 11:00N 48°10' W 005°03'2 3.2
2018-Jun-17 10:29N 48°12' W 005°03'2 3.2
2018-Jun-17 09:56N 48°13' W 005°05'1 2.8
2018-Jun-17 09:28N 48°14' W 005°07'2 2.9
2018-Jun-17 08:55N 48°16' W 005°08'2 2.0
2018-Jun-17 08:09N 48°17' W 005°08'0 2.6
2018-Jun-17 08:00N 48°17' W 005°07'1 2.5
2018-Jun-17 07:29N 48°18' W 005°05'1 2.4
2018-Jun-17 07:00N 48°17' W 005°03'1 2.8
2018-Jun-17 06:30N 48°16' W 005°02'1 2.6
2018-Jun-17 06:00N 48°15' W 005°03'1 3.0
2018-Jun-17 05:30N 48°14' W 005°05'1 1.8
2018-Jun-17 04:59N 48°15' W 005°05'1 1.7
2018-Jun-17 04:30N 48°16' W 005°05'1 1.6
2018-Jun-17 03:58N 48°17' W 005°05'1 2.1
2018-Jun-17 03:30N 48°17' W 005°04'2 3.4
2018-Jun-17 03:00N 48°15' W 005°03'1 2.6
2018-Jun-17 02:30N 48°15' W 005°05'1 2.1
2018-Jun-17 02:00N 48°16' W 005°05'1 2.1
2018-Jun-17 01:25N 48°17' W 005°05'1 2.3
2018-Jun-17 01:00N 48°17' W 005°04'1 2.5
2018-Jun-17 00:30N 48°16' W 005°02'1 2.4
2018-Jun-17 00:00N 48°15' W 005°03'1 2.7
2018-Jun-16 23:30N 48°14' W 005°04'1 2.5
2018-Jun-16 23:00N 48°16' W 005°05'2 3.5
2018-Jun-16 22:29N 48°17' W 005°05'1 2.8
2018-Jun-16 21:59N 48°17' W 005°07'1 1.8
2018-Jun-16 21:30N 48°16' W 005°07'1 2.0
2018-Jun-16 21:00N 48°16' W 005°06'1 2.9
2018-Jun-16 20:30N 48°17' W 005°05'2 3.0
2018-Jun-16 19:57N 48°18' W 005°06'1 2.7
2018-Jun-16 19:28N 48°19' W 005°08'1 3.0
2018-Jun-16 18:59N 48°19' W 005°10'1 2.5
2018-Jun-16 18:30N 48°19' W 005°09'1 0.3
2018-Jun-16 16:55N 48°19' W 005°09'1 3.2
2018-Jun-16 16:28N 48°19' W 005°06'2 4.0
2018-Jun-16 15:59N 48°18' W 005°04'1 2.8
2018-Jun-16 15:30N 48°17' W 005°03'1 2.9
2018-Jun-16 15:00N 48°15' W 005°02'2 3.2
2018-Jun-16 14:30N 48°14' W 005°04'2 3.1
2018-Jun-16 14:00N 48°14' W 005°06'1 1.9
2018-Jun-16 13:27N 48°15' W 005°07'1 2.1
2018-Jun-16 12:59N 48°16' W 005°06'2 2.4
2018-Jun-16 12:21N 48°17' W 005°05'1 2.3
2018-Jun-16 11:47N 48°18' W 005°06'1 0.6
2018-Jun-16 09:51N 48°19' W 005°08'1 0.8
2018-Jun-16 08:38N 48°19' W 005°09'1 2.7
2018-Jun-16 08:09N 48°19' W 005°07'0 2.2
2018-Jun-16 07:56N 48°19' W 005°06'1 2.2
2018-Jun-16 07:30N 48°18' W 005°05'1 2.4
2018-Jun-16 07:00N 48°18' W 005°04'1 2.7
2018-Jun-16 06:30N 48°16' W 005°03'1 2.9
2018-Jun-16 06:00N 48°15' W 005°03'2 3.0
2018-Jun-16 05:30N 48°14' W 005°05'1 1.9
2018-Jun-16 05:00N 48°15' W 005°05'1 1.8
2018-Jun-16 04:30N 48°16' W 005°05'1 1.6
2018-Jun-16 04:00N 48°17' W 005°05'1 2.5
2018-Jun-16 03:30N 48°17' W 005°03'1 2.9
2018-Jun-16 03:00N 48°15' W 005°02'2 3.3
2018-Jun-16 02:30N 48°14' W 005°04'1 2.2
2018-Jun-16 02:00N 48°15' W 005°05'1 2.0
2018-Jun-16 01:30N 48°16' W 005°05'1 2.1
2018-Jun-16 01:00N 48°17' W 005°05'1 1.7
2018-Jun-16 00:30N 48°17' W 005°04'1 2.6
2018-Jun-16 00:00N 48°16' W 005°02'1 2.5
2018-Jun-15 23:30N 48°15' W 005°03'1 2.8
2018-Jun-15 23:00N 48°14' W 005°05'1 2.5
2018-Jun-15 22:30N 48°16' W 005°05'1 2.9
2018-Jun-15 22:00N 48°17' W 005°05'1 2.0
2018-Jun-15 21:30N 48°17' W 005°03'1 1.9
2018-Jun-15 21:00N 48°16' W 005°02'1 1.9
2018-Jun-15 20:30N 48°15' W 005°02'1 2.3
2018-Jun-15 20:00N 48°14' W 005°04'1 2.7
2018-Jun-15 19:30N 48°15' W 005°05'2 3.4
2018-Jun-15 19:00N 48°17' W 005°05'0 0.3
2018-Jun-15 18:30N 48°17' W 005°05'1 2.3
2018-Jun-15 18:00N 48°17' W 005°03'1 2.6
2018-Jun-15 17:30N 48°16' W 005°02'1 2.6
2018-Jun-15 17:00N 48°15' W 005°02'2 3.2
2018-Jun-15 16:30N 48°14' W 005°05'1 2.7
2018-Jun-15 16:00N 48°14' W 005°07'1 1.9
2018-Jun-15 15:30N 48°15' W 005°07'1 1.7
2018-Jun-15 14:59N 48°16' W 005°06'1 1.9
2018-Jun-15 14:30N 48°17' W 005°05'1 2.0
2018-Jun-15 13:56N 48°18' W 005°04'1 2.9
2018-Jun-15 13:30N 48°17' W 005°03'2 3.8
2018-Jun-15 13:00N 48°15' W 005°02'1 2.6
2018-Jun-15 12:30N 48°15' W 005°04'1 2.3
2018-Jun-15 12:00N 48°14' W 005°05'1 2.9
2018-Jun-15 11:30N 48°13' W 005°04'1 2.7
2018-Jun-15 11:00N 48°12' W 005°02'1 2.7
2018-Jun-15 10:30N 48°11' W 005°01'1 2.5
2018-Jun-15 10:00N 48°10' W 005°00'3 5.2
2018-Jun-15 09:30N 48°08' W 004°57'4 8.5
2018-Jun-15 09:00N 48°05' W 004°52'4 8.0
2018-Jun-15 08:30N 48°03' W 004°48'3 6.0
2018-Jun-15 08:00N 48°01' W 004°44'4 7.4
2018-Jun-15 07:30N 47°58' W 004°40'14 7.7
2018-Jun-15 05:44N 47°49' W 004°25'13 0.7
2018-Jun-14 09:43N 47°58' W 004°40'2 7.1
2018-Jun-14 09:27N 47°60' W 004°42'3 7.0
2018-Jun-14 09:00N 48°02' W 004°46'4 8.2
2018-Jun-14 08:31N 48°04' W 004°51'4 7.3
2018-Jun-14 07:59N 48°07' W 004°55'4 7.9
2018-Jun-14 07:31N 48°10' W 004°58'3 5.8
2018-Jun-14 07:00N 48°13' W 004°59'1 2.7
2018-Jun-14 06:30N 48°13' W 004°58'1 1.9
2018-Jun-14 06:00N 48°13' W 004°57'1 2.0
2018-Jun-14 05:30N 48°12' W 004°58'2 3.0
2018-Jun-14 05:00N 48°12' W 005°00'2 3.1
2018-Jun-14 04:31N 48°12' W 005°02'1 2.6
2018-Jun-14 04:00N 48°13' W 005°04'1 2.5
2018-Jun-14 03:30N 48°14' W 005°05'1 1.8
2018-Jun-14 02:59N 48°15' W 005°06'1 1.8
2018-Jun-14 02:30N 48°16' W 005°05'0 0.7
2018-Jun-14 01:59N 48°16' W 005°05'1 1.8
2018-Jun-14 01:30N 48°17' W 005°05'1 2.0
2018-Jun-14 01:00N 48°17' W 005°04'2 3.1
2018-Jun-14 00:30N 48°16' W 005°02'2 3.2
2018-Jun-14 00:00N 48°15' W 005°03'1 2.8
2018-Jun-13 23:30N 48°15' W 005°05'1 2.3
2018-Jun-13 23:00N 48°16' W 005°05'1 2.4
2018-Jun-13 22:30N 48°17' W 005°05'1 2.3
2018-Jun-13 22:00N 48°17' W 005°04'1 2.4
2018-Jun-13 21:31N 48°17' W 005°02'1 2.0
2018-Jun-13 21:00N 48°16' W 005°03'1 2.4
2018-Jun-13 20:30N 48°14' W 005°04'1 2.7
2018-Jun-13 20:00N 48°14' W 005°06'2 2.7
2018-Jun-13 19:11N 48°17' W 005°06'1 3.2
2018-Jun-13 18:46N 48°18' W 005°04'1 2.5
2018-Jun-13 18:30N 48°18' W 005°03'1 2.3
2018-Jun-13 18:01N 48°17' W 005°03'1 2.4
2018-Jun-13 17:31N 48°15' W 005°02'1 2.3
2018-Jun-13 17:00N 48°15' W 005°04'2 3.8
2018-Jun-13 16:30N 48°14' W 005°06'1 2.4
2018-Jun-13 15:58N 48°16' W 005°07'1 2.4
2018-Jun-13 15:21N 48°17' W 005°05'1 2.2
2018-Jun-13 14:58N 48°17' W 005°05'1 2.5
2018-Jun-13 14:30N 48°17' W 005°03'2 3.3
2018-Jun-13 14:00N 48°16' W 005°02'2 3.3
2018-Jun-13 13:30N 48°15' W 005°03'2 3.0
2018-Jun-13 13:00N 48°14' W 005°05'2 3.2
2018-Jun-13 12:30N 48°13' W 005°04'2 3.4
2018-Jun-13 12:00N 48°11' W 005°03'1 2.9
2018-Jun-13 11:31N 48°10' W 005°04'2 3.1
2018-Jun-13 11:01N 48°09' W 005°06'1 2.8
2018-Jun-13 10:30N 48°08' W 005°04'2 3.1
2018-Jun-13 09:58N 48°08' W 005°06'3 1.8
2018-Jun-13 08:33N 48°08' W 005°10'1 3.2
2018-Jun-13 08:18N 48°09' W 005°09'1 2.9
2018-Jun-13 07:50N 48°08' W 005°07'1 3.2
2018-Jun-13 07:25N 48°08' W 005°05'1 3.5
2018-Jun-13 07:00N 48°09' W 005°03'1 2.4
2018-Jun-13 06:27N 48°10' W 005°02'1 3.1
2018-Jun-13 06:00N 48°11' W 005°03'2 3.2
2018-Jun-13 05:30N 48°13' W 005°04'2 3.1
2018-Jun-13 05:00N 48°14' W 005°06'2 3.2
2018-Jun-13 04:28N 48°16' W 005°05'1 2.6
2018-Jun-13 04:01N 48°16' W 005°03'1 2.2
2018-Jun-13 03:30N 48°15' W 005°03'1 2.6
2018-Jun-13 03:00N 48°15' W 005°05'1 2.4
2018-Jun-13 02:30N 48°16' W 005°05'1 2.1
2018-Jun-13 01:58N 48°17' W 005°05'1 2.4
2018-Jun-13 01:30N 48°18' W 005°04'2 3.1
2018-Jun-13 01:01N 48°16' W 005°02'1 3.0
2018-Jun-13 00:31N 48°15' W 005°03'2 3.1
2018-Jun-13 00:00N 48°14' W 005°05'1 2.1
2018-Jun-12 23:31N 48°15' W 005°05'1 2.2
2018-Jun-12 23:00N 48°17' W 005°05'1 2.0
2018-Jun-12 22:30N 48°17' W 005°04'1 2.9
2018-Jun-12 22:00N 48°16' W 005°02'1 2.7
2018-Jun-12 21:30N 48°15' W 005°03'1 2.9
2018-Jun-12 21:00N 48°14' W 005°05'1 3.0
2018-Jun-12 20:30N 48°16' W 005°05'2 3.1
2018-Jun-12 20:00N 48°17' W 005°05'1 2.0
2018-Jun-12 19:31N 48°17' W 005°04'1 1.1
2018-Jun-12 19:00N 48°17' W 005°03'1 2.1
2018-Jun-12 18:31N 48°16' W 005°02'1 2.1
2018-Jun-12 18:00N 48°15' W 005°02'1 2.5
2018-Jun-12 17:30N 48°14' W 005°04'1 2.5
2018-Jun-12 17:00N 48°14' W 005°06'1 2.5
2018-Jun-12 16:30N 48°15' W 005°07'2 3.0
2018-Jun-12 15:59N 48°17' W 005°06'1 2.8
2018-Jun-12 15:27N 48°18' W 005°04'1 2.5
2018-Jun-12 15:00N 48°17' W 005°03'1 2.8
2018-Jun-12 14:30N 48°16' W 005°04'1 2.0
2018-Jun-12 13:59N 48°16' W 005°05'1 2.1
2018-Jun-12 13:30N 48°17' W 005°05'1 2.3
2018-Jun-12 13:00N 48°18' W 005°04'1 2.9
2018-Jun-12 12:30N 48°16' W 005°03'2 3.4
2018-Jun-12 12:01N 48°15' W 005°03'1 3.0
2018-Jun-12 11:31N 48°14' W 005°05'1 2.9
2018-Jun-12 11:01N 48°13' W 005°04'2 3.1
2018-Jun-12 10:31N 48°12' W 005°03'1 3.0
2018-Jun-12 10:00N 48°10' W 005°02'2 3.1
2018-Jun-12 09:31N 48°09' W 005°00'4 7.3
2018-Jun-12 09:00N 48°07' W 004°56'4 8.2
2018-Jun-12 08:31N 48°05' W 004°51'4 8.4
2018-Jun-12 08:00N 48°02' W 004°47'4 9.1
2018-Jun-12 07:31N 47°59' W 004°41'7 8.5
2018-Jun-12 06:40N 47°54' W 004°34'6 8.1
2018-Jun-12 05:53N 47°50' W 004°27'1 0.0
2018-Jun-11 06:53N 47°51' W 004°27'12 8.2
2018-Jun-11 05:26N 47°59' W 004°40'4 8.7
2018-Jun-11 05:00N 48°01' W 004°45'5 9.8
2018-Jun-11 04:30N 48°04' W 004°50'4 7.8
2018-Jun-11 04:00N 48°06' W 004°55'4 8.1
2018-Jun-11 03:30N 48°09' W 004°59'1 1.9
2018-Jun-11 03:00N 48°10' W 004°59'1 2.4
2018-Jun-11 02:30N 48°11' W 005°01'1 2.8
2018-Jun-11 02:00N 48°12' W 004°60'1 2.1
2018-Jun-11 01:30N 48°12' W 005°01'1 3.0
2018-Jun-11 01:00N 48°11' W 005°03'2 2.3
2018-Jun-11 00:19N 48°12' W 005°04'1 2.4
2018-Jun-10 23:58N 48°13' W 005°05'1 2.4
2018-Jun-10 23:28N 48°14' W 005°06'1 2.4
2018-Jun-10 22:52N 48°16' W 005°05'1 2.4
2018-Jun-10 22:29N 48°16' W 005°05'1 2.1
2018-Jun-10 21:59N 48°17' W 005°04'1 2.1
2018-Jun-10 21:30N 48°17' W 005°03'2 3.1
2018-Jun-10 21:00N 48°16' W 005°02'1 2.9
2018-Jun-10 20:30N 48°15' W 005°03'2 3.0
2018-Jun-10 20:00N 48°14' W 005°05'1 2.4
2018-Jun-10 19:30N 48°15' W 005°07'1 2.9
2018-Jun-10 19:00N 48°16' W 005°06'1 2.7
2018-Jun-10 18:30N 48°17' W 005°04'1 2.3
2018-Jun-10 18:00N 48°16' W 005°03'1 2.4
2018-Jun-10 17:30N 48°15' W 005°03'1 2.5
2018-Jun-10 17:00N 48°15' W 005°05'2 2.9
2018-Jun-10 16:28N 48°16' W 005°05'2 3.2
2018-Jun-10 15:59N 48°18' W 005°05'1 2.4
2018-Jun-10 15:28N 48°17' W 005°03'1 2.6
2018-Jun-10 15:00N 48°16' W 005°02'2 2.1
2018-Jun-10 14:00N 48°15' W 005°04'1 2.4
2018-Jun-10 13:27N 48°14' W 005°05'1 3.1
2018-Jun-10 13:00N 48°13' W 005°04'2 3.1
2018-Jun-10 12:30N 48°11' W 005°03'2 3.6
2018-Jun-10 12:00N 48°09' W 005°03'3 0.4
2018-Jun-10 05:34N 48°07' W 005°02'1 9.6
2018-Jun-10 05:29N 48°07' W 005°01'3 5.5
2018-Jun-10 05:00N 48°09' W 004°59'1 2.5
2018-Jun-10 04:30N 48°09' W 005°01'1 2.7
2018-Jun-10 04:00N 48°10' W 005°02'1 2.9
2018-Jun-10 03:30N 48°12' W 005°03'6 2.6
2018-Jun-10 01:19N 48°17' W 005°04'1 2.8
2018-Jun-10 01:00N 48°17' W 005°03'1 2.7
2018-Jun-10 00:30N 48°15' W 005°02'1 2.9
2018-Jun-10 00:00N 48°15' W 005°04'2 1.9
2018-Jun-09 22:53N 48°16' W 005°05'2 2.2
2018-Jun-09 22:11N 48°18' W 005°04'1 3.0
2018-Jun-09 21:59N 48°17' W 005°03'2 3.3
2018-Jun-09 21:30N 48°16' W 005°02'2 3.7
2018-Jun-09 21:00N 48°15' W 005°04'1 1.9
2018-Jun-09 20:22N 48°16' W 005°05'1 2.5
2018-Jun-09 19:54N 48°17' W 005°05'1 2.1
2018-Jun-09 19:25N 48°18' W 005°04'1 2.6
2018-Jun-09 19:00N 48°17' W 005°04'1 2.6
2018-Jun-09 18:30N 48°15' W 005°04'1 2.6
2018-Jun-09 18:00N 48°15' W 005°02'1 2.4
2018-Jun-09 17:30N 48°16' W 005°02'2 3.0
2018-Jun-09 17:00N 48°17' W 005°03'2 3.1
2018-Jun-09 16:30N 48°17' W 005°05'1 1.7
2018-Jun-09 15:55N 48°16' W 005°05'2 2.2
2018-Jun-09 14:58N 48°14' W 005°06'1 2.2
2018-Jun-09 14:29N 48°15' W 005°07'3 1.7
2018-Jun-09 12:58N 48°17' W 005°06'1 2.9
2018-Jun-09 12:29N 48°18' W 005°04'1 2.8
2018-Jun-09 12:00N 48°16' W 005°03'2 3.3
2018-Jun-09 11:30N 48°16' W 005°05'1 2.0
2018-Jun-09 10:58N 48°17' W 005°05'1 2.3
2018-Jun-09 10:30N 48°18' W 005°05'1 1.1
2018-Jun-09 10:00N 48°18' W 005°05'2 3.2
2018-Jun-09 09:30N 48°17' W 005°03'2 3.1
2018-Jun-09 09:00N 48°16' W 005°02'2 3.0
2018-Jun-09 08:30N 48°15' W 005°04'2 3.1
2018-Jun-09 08:00N 48°14' W 005°06'1 2.3
2018-Jun-09 07:30N 48°15' W 005°07'1 2.4
2018-Jun-09 07:00N 48°16' W 005°06'1 1.3
2018-Jun-09 06:30N 48°17' W 005°05'1 2.2
2018-Jun-09 06:00N 48°17' W 005°04'1 2.6
2018-Jun-09 05:30N 48°16' W 005°02'1 2.6
2018-Jun-09 05:00N 48°15' W 005°03'1 2.8
2018-Jun-09 04:30N 48°14' W 005°05'2 3.2
2018-Jun-09 04:00N 48°16' W 005°05'1 2.5
2018-Jun-09 03:30N 48°17' W 005°04'1 2.3
2018-Jun-09 03:00N 48°16' W 005°03'1 2.5
2018-Jun-09 02:30N 48°15' W 005°03'1 2.2
2018-Jun-09 02:00N 48°15' W 005°05'2 3.2
2018-Jun-09 01:30N 48°16' W 005°05'1 2.5
2018-Jun-09 01:00N 48°17' W 005°04'1 2.8
2018-Jun-09 00:30N 48°16' W 005°02'1 2.5
2018-Jun-09 00:00N 48°15' W 005°03'1 2.7
2018-Jun-08 23:30N 48°14' W 005°05'1 2.4
2018-Jun-08 22:58N 48°16' W 005°05'2 2.1
2018-Jun-08 22:14N 48°17' W 005°04'1 3.0
2018-Jun-08 22:00N 48°17' W 005°03'1 3.0
2018-Jun-08 21:30N 48°16' W 005°02'2 3.1
2018-Jun-08 21:00N 48°15' W 005°04'1 2.3
2018-Jun-08 20:28N 48°15' W 005°05'1 2.6
2018-Jun-08 19:58N 48°17' W 005°05'0 0.6
2018-Jun-08 19:28N 48°17' W 005°05'1 2.9
2018-Jun-08 19:00N 48°16' W 005°04'1 2.1
2018-Jun-08 18:30N 48°15' W 005°04'2 3.0
2018-Jun-08 17:58N 48°14' W 005°07'1 3.0
2018-Jun-08 17:30N 48°16' W 005°07'2 2.9
2018-Jun-08 16:58N 48°17' W 005°05'1 2.7
2018-Jun-08 16:29N 48°18' W 005°06'1 1.7
2018-Jun-08 16:00N 48°18' W 005°05'1 2.5
2018-Jun-08 15:30N 48°17' W 005°03'1 2.6
2018-Jun-08 15:00N 48°16' W 005°03'1 2.7
2018-Jun-08 14:30N 48°15' W 005°04'1 2.3
2018-Jun-08 13:59N 48°15' W 005°05'2 3.2
2018-Jun-08 13:30N 48°17' W 005°05'1 2.8
2018-Jun-08 12:58N 48°18' W 005°06'1 2.2
2018-Jun-08 12:30N 48°18' W 005°05'1 2.7
2018-Jun-08 12:00N 48°17' W 005°06'1 2.7
2018-Jun-08 11:30N 48°15' W 005°07'1 2.6
2018-Jun-08 11:00N 48°14' W 005°06'2 3.0
2018-Jun-08 10:30N 48°13' W 005°05'2 3.0
2018-Jun-08 10:00N 48°12' W 005°04'1 2.9
2018-Jun-08 09:30N 48°11' W 005°02'2 4.6
2018-Jun-08 09:00N 48°09' W 004°59'4 8.8
2018-Jun-08 08:30N 48°07' W 004°54'5 9.1
2018-Jun-08 08:00N 48°04' W 004°49'  
Track history (hours):
 
Tides and Currents Weather Stations Pressure Air Temp Water Temp Dewpoint Dewpoint Depression Visibility Wind Speed Wind Dir Waves Ship Positions

F/V Kan An Ael

Last reported at 2018-Jun-18 07:50 UTC. Time now 2018-Jun-20 09:37 UTC.
Position N 47°49' W 004°23'.

Length 16 m.

Type: Fishing. MMSI: 228109000.

Date/timePositionNaut miles runAvg speedWind from/ knotsBaromVisibWave heightAir tempDewpointWater temp
2018-Jun-18 07:50N 47°49' W 004°23'0 0.0
2018-Jun-18 07:28N 47°49' W 004°23'2 4.2
2018-Jun-18 07:00N 47°50' W 004°26'4 8.9
2018-Jun-18 06:30N 47°52' W 004°30'7 8.5
2018-Jun-18 05:38N 47°57' W 004°39'1 8.2
2018-Jun-18 05:29N 47°58' W 004°40'4 7.6
2018-Jun-18 05:00N 48°01' W 004°44'3 6.1
2018-Jun-18 04:30N 48°03' W 004°47'4 8.3
2018-Jun-18 04:00N 48°05' W 004°52'4 8.2
2018-Jun-18 03:30N 48°08' W 004°57'3 7.1
2018-Jun-18 03:00N 48°11' W 004°59'1 2.0
2018-Jun-18 02:30N 48°12' W 004°57'1 2.6
2018-Jun-18 02:00N 48°12' W 004°56'1 2.7
2018-Jun-18 01:30N 48°13' W 004°54'1 2.7
2018-Jun-18 01:00N 48°14' W 004°53'1 2.2
2018-Jun-18 00:30N 48°15' W 004°53'1 2.8
2018-Jun-18 00:00N 48°15' W 004°55'1 2.6
2018-Jun-17 23:30N 48°14' W 004°57'1 2.4
2018-Jun-17 23:00N 48°13' W 004°58'1 2.6
2018-Jun-17 22:30N 48°13' W 005°00'1 2.4
2018-Jun-17 22:00N 48°12' W 005°02'2 4.2
2018-Jun-17 21:26N 48°13' W 005°05'1 2.5
2018-Jun-17 20:53N 48°15' W 005°05'1 3.2
2018-Jun-17 20:29N 48°16' W 005°05'1 2.6
2018-Jun-17 19:59N 48°17' W 005°05'1 2.3
2018-Jun-17 19:30N 48°16' W 005°03'1 2.9
2018-Jun-17 19:00N 48°15' W 005°03'2 1.7
2018-Jun-17 17:38N 48°15' W 005°07'1 1.3
2018-Jun-17 16:38N 48°17' W 005°08'1 1.2
2018-Jun-17 15:42N 48°17' W 005°07'1 2.3
2018-Jun-17 15:24N 48°17' W 005°06'1 2.7
2018-Jun-17 15:00N 48°16' W 005°05'1 2.9
2018-Jun-17 14:30N 48°15' W 005°04'1 2.5
2018-Jun-17 14:00N 48°15' W 005°05'1 2.3
2018-Jun-17 13:30N 48°13' W 005°05'1 2.7
2018-Jun-17 13:00N 48°13' W 005°03'1 2.5
2018-Jun-17 12:30N 48°12' W 005°02'1 2.5
2018-Jun-17 12:00N 48°11' W 005°01'1 2.1
2018-Jun-17 11:30N 48°10' W 005°02'1 2.1
2018-Jun-17 11:00N 48°10' W 005°03'2 3.2
2018-Jun-17 10:29N 48°12' W 005°03'2 3.2
2018-Jun-17 09:56N 48°13' W 005°05'1 2.8
2018-Jun-17 09:28N 48°14' W 005°07'2 2.9
2018-Jun-17 08:55N 48°16' W 005°08'2 2.0
2018-Jun-17 08:09N 48°17' W 005°08'0 2.6
2018-Jun-17 08:00N 48°17' W 005°07'1 2.5
2018-Jun-17 07:29N 48°18' W 005°05'1 2.4
2018-Jun-17 07:00N 48°17' W 005°03'1 2.8
2018-Jun-17 06:30N 48°16' W 005°02'1 2.6
2018-Jun-17 06:00N 48°15' W 005°03'1 3.0
2018-Jun-17 05:30N 48°14' W 005°05'1 1.8
2018-Jun-17 04:59N 48°15' W 005°05'1 1.7
2018-Jun-17 04:30N 48°16' W 005°05'1 1.6
2018-Jun-17 03:58N 48°17' W 005°05'1 2.1
2018-Jun-17 03:30N 48°17' W 005°04'2 3.4
2018-Jun-17 03:00N 48°15' W 005°03'1 2.6
2018-Jun-17 02:30N 48°15' W 005°05'1 2.1
2018-Jun-17 02:00N 48°16' W 005°05'1 2.1
2018-Jun-17 01:25N 48°17' W 005°05'1 2.3
2018-Jun-17 01:00N 48°17' W 005°04'1 2.5
2018-Jun-17 00:30N 48°16' W 005°02'1 2.4
2018-Jun-17 00:00N 48°15' W 005°03'1 2.7
2018-Jun-16 23:30N 48°14' W 005°04'1 2.5
2018-Jun-16 23:00N 48°16' W 005°05'2 3.5
2018-Jun-16 22:29N 48°17' W 005°05'1 2.8
2018-Jun-16 21:59N 48°17' W 005°07'1 1.8
2018-Jun-16 21:30N 48°16' W 005°07'1 2.0
2018-Jun-16 21:00N 48°16' W 005°06'1 2.9
2018-Jun-16 20:30N 48°17' W 005°05'2 3.0
2018-Jun-16 19:57N 48°18' W 005°06'1 2.7
2018-Jun-16 19:28N 48°19' W 005°08'1 3.0
2018-Jun-16 18:59N 48°19' W 005°10'1 2.5
2018-Jun-16 18:30N 48°19' W 005°09'1 0.3
2018-Jun-16 16:55N 48°19' W 005°09'1 3.2
2018-Jun-16 16:28N 48°19' W 005°06'2 4.0
2018-Jun-16 15:59N 48°18' W 005°04'1 2.8
2018-Jun-16 15:30N 48°17' W 005°03'1 2.9
2018-Jun-16 15:00N 48°15' W 005°02'2 3.2
2018-Jun-16 14:30N 48°14' W 005°04'2 3.1
2018-Jun-16 14:00N 48°14' W 005°06'1 1.9
2018-Jun-16 13:27N 48°15' W 005°07'1 2.1
2018-Jun-16 12:59N 48°16' W 005°06'2 2.4
2018-Jun-16 12:21N 48°17' W 005°05'1 2.3
2018-Jun-16 11:47N 48°18' W 005°06'1 0.6
2018-Jun-16 09:51N 48°19' W 005°08'1 0.8
2018-Jun-16 08:38N 48°19' W 005°09'1 2.7
2018-Jun-16 08:09N 48°19' W 005°07'0 2.2
2018-Jun-16 07:56N 48°19' W 005°06'1 2.2
2018-Jun-16 07:30N 48°18' W 005°05'1 2.4
2018-Jun-16 07:00N 48°18' W 005°04'1 2.7
2018-Jun-16 06:30N 48°16' W 005°03'1 2.9
2018-Jun-16 06:00N 48°15' W 005°03'2 3.0
2018-Jun-16 05:30N 48°14' W 005°05'1 1.9
2018-Jun-16 05:00N 48°15' W 005°05'1 1.8
2018-Jun-16 04:30N 48°16' W 005°05'1 1.6
2018-Jun-16 04:00N 48°17' W 005°05'1 2.5
2018-Jun-16 03:30N 48°17' W 005°03'1 2.9
2018-Jun-16 03:00N 48°15' W 005°02'2 3.3
2018-Jun-16 02:30N 48°14' W 005°04'1 2.2
2018-Jun-16 02:00N 48°15' W 005°05'1 2.0
2018-Jun-16 01:30N 48°16' W 005°05'1 2.1
2018-Jun-16 01:00N 48°17' W 005°05'1 1.7
2018-Jun-16 00:30N 48°17' W 005°04'1 2.6
2018-Jun-16 00:00N 48°16' W 005°02'1 2.5
2018-Jun-15 23:30N 48°15' W 005°03'1 2.8
2018-Jun-15 23:00N 48°14' W 005°05'1 2.5
2018-Jun-15 22:30N 48°16' W 005°05'1 2.9
2018-Jun-15 22:00N 48°17' W 005°05'1 2.0
2018-Jun-15 21:30N 48°17' W 005°03'1 1.9
2018-Jun-15 21:00N 48°16' W 005°02'1 1.9
2018-Jun-15 20:30N 48°15' W 005°02'1 2.3
2018-Jun-15 20:00N 48°14' W 005°04'1 2.7
2018-Jun-15 19:30N 48°15' W 005°05'2 3.4
2018-Jun-15 19:00N 48°17' W 005°05'0 0.3
2018-Jun-15 18:30N 48°17' W 005°05'1 2.3
2018-Jun-15 18:00N 48°17' W 005°03'1 2.6
2018-Jun-15 17:30N 48°16' W 005°02'1 2.6
2018-Jun-15 17:00N 48°15' W 005°02'2 3.2
2018-Jun-15 16:30N 48°14' W 005°05'1 2.7
2018-Jun-15 16:00N 48°14' W 005°07'1 1.9
2018-Jun-15 15:30N 48°15' W 005°07'1 1.7
2018-Jun-15 14:59N 48°16' W 005°06'1 1.9
2018-Jun-15 14:30N 48°17' W 005°05'1 2.0
2018-Jun-15 13:56N 48°18' W 005°04'1 2.9
2018-Jun-15 13:30N 48°17' W 005°03'2 3.8
2018-Jun-15 13:00N 48°15' W 005°02'1 2.6
2018-Jun-15 12:30N 48°15' W 005°04'1 2.3
2018-Jun-15 12:00N 48°14' W 005°05'1 2.9
2018-Jun-15 11:30N 48°13' W 005°04'1 2.7
2018-Jun-15 11:00N 48°12' W 005°02'1 2.7
2018-Jun-15 10:30N 48°11' W 005°01'1 2.5
2018-Jun-15 10:00N 48°10' W 005°00'3 5.2
2018-Jun-15 09:30N 48°08' W 004°57'4 8.5
2018-Jun-15 09:00N 48°05' W 004°52'4 8.0
2018-Jun-15 08:30N 48°03' W 004°48'3 6.0
2018-Jun-15 08:00N 48°01' W 004°44'4 7.4
2018-Jun-15 07:30N 47°58' W 004°40'14 7.7
2018-Jun-15 05:44N 47°49' W 004°25'13 0.7
2018-Jun-14 09:43N 47°58' W 004°40'2 7.1
2018-Jun-14 09:27N 47°60' W 004°42'3 7.0
2018-Jun-14 09:00N 48°02' W 004°46'4 8.2
2018-Jun-14 08:31N 48°04' W 004°51'4 7.3
2018-Jun-14 07:59N 48°07' W 004°55'4 7.9
2018-Jun-14 07:31N 48°10' W 004°58'3 5.8
2018-Jun-14 07:00N 48°13' W 004°59'1 2.7
2018-Jun-14 06:30N 48°13' W 004°58'1 1.9
2018-Jun-14 06:00N 48°13' W 004°57'1 2.0
2018-Jun-14 05:30N 48°12' W 004°58'2 3.0
2018-Jun-14 05:00N 48°12' W 005°00'2 3.1
2018-Jun-14 04:31N 48°12' W 005°02'1 2.6
2018-Jun-14 04:00N 48°13' W 005°04'1 2.5
2018-Jun-14 03:30N 48°14' W 005°05'1 1.8
2018-Jun-14 02:59N 48°15' W 005°06'1 1.8
2018-Jun-14 02:30N 48°16' W 005°05'0 0.7
2018-Jun-14 01:59N 48°16' W 005°05'1 1.8
2018-Jun-14 01:30N 48°17' W 005°05'1 2.0
2018-Jun-14 01:00N 48°17' W 005°04'2 3.1
2018-Jun-14 00:30N 48°16' W 005°02'2 3.2
2018-Jun-14 00:00N 48°15' W 005°03'1 2.8
2018-Jun-13 23:30N 48°15' W 005°05'1 2.3
2018-Jun-13 23:00N 48°16' W 005°05'1 2.4
2018-Jun-13 22:30N 48°17' W 005°05'1 2.3
2018-Jun-13 22:00N 48°17' W 005°04'1 2.4
2018-Jun-13 21:31N 48°17' W 005°02'1 2.0
2018-Jun-13 21:00N 48°16' W 005°03'1 2.4
2018-Jun-13 20:30N 48°14' W 005°04'1 2.7
2018-Jun-13 20:00N 48°14' W 005°06'2 2.7
2018-Jun-13 19:11N 48°17' W 005°06'1 3.2
2018-Jun-13 18:46N 48°18' W 005°04'1 2.5
2018-Jun-13 18:30N 48°18' W 005°03'1 2.3
2018-Jun-13 18:01N 48°17' W 005°03'1 2.4
2018-Jun-13 17:31N 48°15' W 005°02'1 2.3
2018-Jun-13 17:00N 48°15' W 005°04'2 3.8
2018-Jun-13 16:30N 48°14' W 005°06'1 2.4
2018-Jun-13 15:58N 48°16' W 005°07'1 2.4
2018-Jun-13 15:21N 48°17' W 005°05'1 2.2
2018-Jun-13 14:58N 48°17' W 005°05'1 2.5
2018-Jun-13 14:30N 48°17' W 005°03'2 3.3
2018-Jun-13 14:00N 48°16' W 005°02'2 3.3
2018-Jun-13 13:30N 48°15' W 005°03'2 3.0
2018-Jun-13 13:00N 48°14' W 005°05'2 3.2
2018-Jun-13 12:30N 48°13' W 005°04'2 3.4
2018-Jun-13 12:00N 48°11' W 005°03'1 2.9
2018-Jun-13 11:31N 48°10' W 005°04'2 3.1
2018-Jun-13 11:01N 48°09' W 005°06'1 2.8
2018-Jun-13 10:30N 48°08' W 005°04'2 3.1
2018-Jun-13 09:58N 48°08' W 005°06'3 1.8
2018-Jun-13 08:33N 48°08' W 005°10'1 3.2
2018-Jun-13 08:18N 48°09' W 005°09'1 2.9
2018-Jun-13 07:50N 48°08' W 005°07'1 3.2
2018-Jun-13 07:25N 48°08' W 005°05'1 3.5
2018-Jun-13 07:00N 48°09' W 005°03'1 2.4
2018-Jun-13 06:27N 48°10' W 005°02'1 3.1
2018-Jun-13 06:00N 48°11' W 005°03'2 3.2
2018-Jun-13 05:30N 48°13' W 005°04'2 3.1
2018-Jun-13 05:00N 48°14' W 005°06'2 3.2
2018-Jun-13 04:28N 48°16' W 005°05'1 2.6
2018-Jun-13 04:01N 48°16' W 005°03'1 2.2
2018-Jun-13 03:30N 48°15' W 005°03'1 2.6
2018-Jun-13 03:00N 48°15' W 005°05'1 2.4
2018-Jun-13 02:30N 48°16' W 005°05'1 2.1
2018-Jun-13 01:58N 48°17' W 005°05'1 2.4
2018-Jun-13 01:30N 48°18' W 005°04'2 3.1
2018-Jun-13 01:01N 48°16' W 005°02'1 3.0
2018-Jun-13 00:31N 48°15' W 005°03'2 3.1
2018-Jun-13 00:00N 48°14' W 005°05'1 2.1
2018-Jun-12 23:31N 48°15' W 005°05'1 2.2
2018-Jun-12 23:00N 48°17' W 005°05'1 2.0
2018-Jun-12 22:30N 48°17' W 005°04'1 2.9
2018-Jun-12 22:00N 48°16' W 005°02'1 2.7
2018-Jun-12 21:30N 48°15' W 005°03'1 2.9
2018-Jun-12 21:00N 48°14' W 005°05'1 3.0
2018-Jun-12 20:30N 48°16' W 005°05'2 3.1
2018-Jun-12 20:00N 48°17' W 005°05'1 2.0
2018-Jun-12 19:31N 48°17' W 005°04'1 1.1
2018-Jun-12 19:00N 48°17' W 005°03'1 2.1
2018-Jun-12 18:31N 48°16' W 005°02'1 2.1
2018-Jun-12 18:00N 48°15' W 005°02'1 2.5
2018-Jun-12 17:30N 48°14' W 005°04'1 2.5
2018-Jun-12 17:00N 48°14' W 005°06'1 2.5
2018-Jun-12 16:30N 48°15' W 005°07'2 3.0
2018-Jun-12 15:59N 48°17' W 005°06'1 2.8
2018-Jun-12 15:27N 48°18' W 005°04'1 2.5
2018-Jun-12 15:00N 48°17' W 005°03'1 2.8
2018-Jun-12 14:30N 48°16' W 005°04'1 2.0
2018-Jun-12 13:59N 48°16' W 005°05'1 2.1
2018-Jun-12 13:30N 48°17' W 005°05'1 2.3
2018-Jun-12 13:00N 48°18' W 005°04'1 2.9
2018-Jun-12 12:30N 48°16' W 005°03'2 3.4
2018-Jun-12 12:01N 48°15' W 005°03'1 3.0
2018-Jun-12 11:31N 48°14' W 005°05'1 2.9
2018-Jun-12 11:01N 48°13' W 005°04'2 3.1
2018-Jun-12 10:31N 48°12' W 005°03'1 3.0
2018-Jun-12 10:00N 48°10' W 005°02'2 3.1
2018-Jun-12 09:31N 48°09' W 005°00'4 7.3
2018-Jun-12 09:00N 48°07' W 004°56'4 8.2
2018-Jun-12 08:31N 48°05' W 004°51'4 8.4
2018-Jun-12 08:00N 48°02' W 004°47'4 9.1
2018-Jun-12 07:31N 47°59' W 004°41'7 8.5
2018-Jun-12 06:40N 47°54' W 004°34'6 8.1
2018-Jun-12 05:53N 47°50' W 004°27'1 0.0
2018-Jun-11 06:53N 47°51' W 004°27'12 8.2
2018-Jun-11 05:26N 47°59' W 004°40'4 8.7
2018-Jun-11 05:00N 48°01' W 004°45'5 9.8
2018-Jun-11 04:30N 48°04' W 004°50'4 7.8
2018-Jun-11 04:00N 48°06' W 004°55'4 8.1
2018-Jun-11 03:30N 48°09' W 004°59'1 1.9
2018-Jun-11 03:00N 48°10' W 004°59'1 2.4
2018-Jun-11 02:30N 48°11' W 005°01'1 2.8
2018-Jun-11 02:00N 48°12' W 004°60'1 2.1
2018-Jun-11 01:30N 48°12' W 005°01'1 3.0
2018-Jun-11 01:00N 48°11' W 005°03'2 2.3
2018-Jun-11 00:19N 48°12' W 005°04'1 2.4
2018-Jun-10 23:58N 48°13' W 005°05'1 2.4
2018-Jun-10 23:28N 48°14' W 005°06'1 2.4
2018-Jun-10 22:52N 48°16' W 005°05'1 2.4
2018-Jun-10 22:29N 48°16' W 005°05'1 2.1
2018-Jun-10 21:59N 48°17' W 005°04'1 2.1
2018-Jun-10 21:30N 48°17' W 005°03'2 3.1
2018-Jun-10 21:00N 48°16' W 005°02'1 2.9
2018-Jun-10 20:30N 48°15' W 005°03'2 3.0
2018-Jun-10 20:00N 48°14' W 005°05'1 2.4
2018-Jun-10 19:30N 48°15' W 005°07'1 2.9
2018-Jun-10 19:00N 48°16' W 005°06'1 2.7
2018-Jun-10 18:30N 48°17' W 005°04'1 2.3
2018-Jun-10 18:00N 48°16' W 005°03'1 2.4
2018-Jun-10 17:30N 48°15' W 005°03'1 2.5
2018-Jun-10 17:00N 48°15' W 005°05'2 2.9
2018-Jun-10 16:28N 48°16' W 005°05'2 3.2
2018-Jun-10 15:59N 48°18' W 005°05'1 2.4
2018-Jun-10 15:28N 48°17' W 005°03'1 2.6
2018-Jun-10 15:00N 48°16' W 005°02'2 2.1
2018-Jun-10 14:00N 48°15' W 005°04'1 2.4
2018-Jun-10 13:27N 48°14' W 005°05'1 3.1
2018-Jun-10 13:00N 48°13' W 005°04'2 3.1
2018-Jun-10 12:30N 48°11' W 005°03'2 3.6
2018-Jun-10 12:00N 48°09' W 005°03'3 0.4
2018-Jun-10 05:34N 48°07' W 005°02'1 9.6
2018-Jun-10 05:29N 48°07' W 005°01'3 5.5
2018-Jun-10 05:00N 48°09' W 004°59'1 2.5
2018-Jun-10 04:30N 48°09' W 005°01'1 2.7
2018-Jun-10 04:00N 48°10' W 005°02'1 2.9
2018-Jun-10 03:30N 48°12' W 005°03'6 2.6
2018-Jun-10 01:19N 48°17' W 005°04'1 2.8
2018-Jun-10 01:00N 48°17' W 005°03'1 2.7
2018-Jun-10 00:30N 48°15' W 005°02'1 2.9
2018-Jun-10 00:00N 48°15' W 005°04'2 1.9
2018-Jun-09 22:53N 48°16' W 005°05'2 2.2
2018-Jun-09 22:11N 48°18' W 005°04'1 3.0
2018-Jun-09 21:59N 48°17' W 005°03'2 3.3
2018-Jun-09 21:30N 48°16' W 005°02'2 3.7
2018-Jun-09 21:00N 48°15' W 005°04'1 1.9
2018-Jun-09 20:22N 48°16' W 005°05'1 2.5
2018-Jun-09 19:54N 48°17' W 005°05'1 2.1
2018-Jun-09 19:25N 48°18' W 005°04'1 2.6
2018-Jun-09 19:00N 48°17' W 005°04'1 2.6
2018-Jun-09 18:30N 48°15' W 005°04'1 2.6
2018-Jun-09 18:00N 48°15' W 005°02'1 2.4
2018-Jun-09 17:30N 48°16' W 005°02'2 3.0
2018-Jun-09 17:00N 48°17' W 005°03'2 3.1
2018-Jun-09 16:30N 48°17' W 005°05'1 1.7
2018-Jun-09 15:55N 48°16' W 005°05'2 2.2
2018-Jun-09 14:58N 48°14' W 005°06'1 2.2
2018-Jun-09 14:29N 48°15' W 005°07'3 1.7
2018-Jun-09 12:58N 48°17' W 005°06'1 2.9
2018-Jun-09 12:29N 48°18' W 005°04'1 2.8
2018-Jun-09 12:00N 48°16' W 005°03'2 3.3
2018-Jun-09 11:30N 48°16' W 005°05'1 2.0
2018-Jun-09 10:58N 48°17' W 005°05'1 2.3
2018-Jun-09 10:30N 48°18' W 005°05'1 1.1
2018-Jun-09 10:00N 48°18' W 005°05'2 3.2
2018-Jun-09 09:30N 48°17' W 005°03'2 3.1
2018-Jun-09 09:00N 48°16' W 005°02'2 3.0
2018-Jun-09 08:30N 48°15' W 005°04'2 3.1
2018-Jun-09 08:00N 48°14' W 005°06'1 2.3
2018-Jun-09 07:30N 48°15' W 005°07'1 2.4
2018-Jun-09 07:00N 48°16' W 005°06'1 1.3
2018-Jun-09 06:30N 48°17' W 005°05'1 2.2
2018-Jun-09 06:00N 48°17' W 005°04'1 2.6
2018-Jun-09 05:30N 48°16' W 005°02'1 2.6
2018-Jun-09 05:00N 48°15' W 005°03'1 2.8
2018-Jun-09 04:30N 48°14' W 005°05'2 3.2
2018-Jun-09 04:00N 48°16' W 005°05'1 2.5
2018-Jun-09 03:30N 48°17' W 005°04'1 2.3
2018-Jun-09 03:00N 48°16' W 005°03'1 2.5
2018-Jun-09 02:30N 48°15' W 005°03'1 2.2
2018-Jun-09 02:00N 48°15' W 005°05'2 3.2
2018-Jun-09 01:30N 48°16' W 005°05'1 2.5
2018-Jun-09 01:00N 48°17' W 005°04'1 2.8
2018-Jun-09 00:30N 48°16' W 005°02'1 2.5
2018-Jun-09 00:00N 48°15' W 005°03'1 2.7
2018-Jun-08 23:30N 48°14' W 005°05'1 2.4
2018-Jun-08 22:58N 48°16' W 005°05'2 2.1
2018-Jun-08 22:14N 48°17' W 005°04'1 3.0
2018-Jun-08 22:00N 48°17' W 005°03'1 3.0
2018-Jun-08 21:30N 48°16' W 005°02'2 3.1
2018-Jun-08 21:00N 48°15' W 005°04'1 2.3
2018-Jun-08 20:28N 48°15' W 005°05'1 2.6
2018-Jun-08 19:58N 48°17' W 005°05'0 0.6
2018-Jun-08 19:28N 48°17' W 005°05'1 2.9
2018-Jun-08 19:00N 48°16' W 005°04'1 2.1
2018-Jun-08 18:30N 48°15' W 005°04'2 3.0
2018-Jun-08 17:58N 48°14' W 005°07'1 3.0
2018-Jun-08 17:30N 48°16' W 005°07'2 2.9
2018-Jun-08 16:58N 48°17' W 005°05'1 2.7
2018-Jun-08 16:29N 48°18' W 005°06'1 1.7
2018-Jun-08 16:00N 48°18' W 005°05'1 2.5
2018-Jun-08 15:30N 48°17' W 005°03'1 2.6
2018-Jun-08 15:00N 48°16' W 005°03'1 2.7
2018-Jun-08 14:30N 48°15' W 005°04'1 2.3
2018-Jun-08 13:59N 48°15' W 005°05'2 3.2
2018-Jun-08 13:30N 48°17' W 005°05'1 2.8
2018-Jun-08 12:58N 48°18' W 005°06'1 2.2
2018-Jun-08 12:30N 48°18' W 005°05'1 2.7
2018-Jun-08 12:00N 48°17' W 005°06'1 2.7
2018-Jun-08 11:30N 48°15' W 005°07'1 2.6
2018-Jun-08 11:00N 48°14' W 005°06'2 3.0
2018-Jun-08 10:30N 48°13' W 005°05'2 3.0
2018-Jun-08 10:00N 48°12' W 005°04'1 2.9
2018-Jun-08 09:30N 48°11' W 005°02'2 4.6
2018-Jun-08 09:00N 48°09' W 004°59'4 8.8
2018-Jun-08 08:30N 48°07' W 004°54'5 9.1
2018-Jun-08 08:00N 48°04' W 004°49'  

Dump ship's entire track history